Washington Park, Illinois
Current Conditions -  °F | °C
As of 9:53 PM on Saturday 22 Nov 2014 (Local Time) from KCPS Reporting Station
Overcast Overcast  
Wind Chill: 53°   Ceiling: 8000
Heat Index: 53°   Visibility: 10mi
Dew Point: 50°   Wind: 5mph
Humidity: 89%   Direction: 160°SSE
Pressure: 29.9"   Gusts: NA
Location:  38.6323°N, 90.0908°W
Report Text: KCPS 230353Z AUTO 16004KT 10SM BKN080 OVC090 12/10 A2990 RMK AO2 RAB0257E42 SLP126 P0000 T01170100 TSNO
Loading
Personal Weather Stations






























Interactive Weather Map New forecast layout! Learn more

10-Day Weather Forecast

Advertisements
Track Severe Weather on mobile